createdAt,value
2018-02-16T00:00:20.012Z,3.20
2018-02-16T00:02:47.520Z,3.20
2018-02-16T00:05:15.011Z,3.20
2018-02-16T00:07:42.513Z,3.30
2018-02-16T00:10:09.990Z,3.20
2018-02-16T00:12:37.488Z,3.20
2018-02-16T00:15:05.739Z,3.30
2018-02-16T00:17:33.240Z,3.20
2018-02-16T00:20:01.507Z,3.30
2018-02-16T00:22:29.010Z,3.30
2018-02-16T00:24:57.255Z,3.40
2018-02-16T00:27:24.759Z,3.30
2018-02-16T00:29:53.008Z,3.40
2018-02-16T00:32:20.509Z,3.40
2018-02-16T00:34:47.984Z,3.40
2018-02-16T00:37:16.254Z,3.40
2018-02-16T00:39:43.735Z,3.40
2018-02-16T00:42:11.245Z,3.40
2018-02-16T00:44:38.730Z,3.40
2018-02-16T00:47:06.238Z,3.40
2018-02-16T00:49:33.715Z,3.40
2018-02-16T00:52:01.215Z,3.40
2018-02-16T00:54:28.699Z,3.40
2018-02-16T00:56:56.202Z,3.50
2018-02-16T00:59:23.687Z,3.50
2018-02-16T01:01:51.191Z,3.50
2018-02-16T01:04:18.682Z,3.50
2018-02-16T01:06:46.191Z,3.40
2018-02-16T01:09:13.678Z,3.50
2018-02-16T01:11:41.176Z,3.50
2018-02-16T01:14:08.656Z,3.40
2018-02-16T01:16:36.160Z,3.40
2018-02-16T01:19:03.651Z,3.40
2018-02-16T01:21:31.159Z,3.40
2018-02-16T01:23:58.647Z,3.50
2018-02-16T01:26:26.146Z,3.50
2018-02-16T01:28:53.650Z,3.40
2018-02-16T01:31:21.909Z,3.30
2018-02-16T01:33:49.411Z,3.30
2018-02-16T01:36:17.666Z,3.30
2018-02-16T01:38:45.165Z,3.30
2018-02-16T01:41:12.651Z,3.40
2018-02-16T01:43:40.927Z,3.40
2018-02-16T01:46:09.182Z,3.50
2018-02-16T01:48:36.688Z,3.40
2018-02-16T01:51:04.935Z,3.40
2018-02-16T01:53:32.880Z,3.40
2018-02-16T01:56:00.371Z,3.40
2018-02-16T01:58:27.877Z,3.50
2018-02-16T02:00:55.358Z,3.50
2018-02-16T02:03:23.646Z,3.50
2018-02-16T02:05:51.891Z,3.50
2018-02-16T02:08:19.368Z,3.40
2018-02-16T02:10:46.871Z,3.50
2018-02-16T02:13:14.365Z,3.50
2018-02-16T02:15:41.868Z,3.60
2018-02-16T02:18:09.355Z,3.60
2018-02-16T02:20:36.859Z,3.60
2018-02-16T02:23:04.342Z,3.60
2018-02-16T02:25:32.610Z,3.50
2018-02-16T02:28:00.096Z,3.40
2018-02-16T02:30:28.368Z,3.50
2018-02-16T02:32:56.625Z,3.50
2018-02-16T02:35:24.133Z,3.50
2018-02-16T02:37:52.379Z,3.50
2018-02-16T02:40:19.887Z,3.40
2018-02-16T02:42:48.147Z,3.50
2018-02-16T02:45:15.656Z,3.50
2018-02-16T02:47:43.904Z,3.50
2018-02-16T02:50:11.419Z,3.40
2018-02-16T02:52:39.666Z,3.50
2018-02-16T02:55:07.147Z,3.50
2018-02-16T02:57:34.655Z,3.60
2018-02-16T03:00:02.138Z,3.50
2018-02-16T03:02:29.639Z,3.50
2018-02-16T03:04:57.119Z,3.40
2018-02-16T03:07:24.630Z,3.40
2018-02-16T03:09:52.882Z,3.40
2018-02-16T03:12:20.446Z,3.30
2018-02-16T03:14:47.931Z,3.40
2018-02-16T03:17:15.448Z,3.40
2018-02-16T03:19:42.935Z,3.30
2018-02-16T03:22:10.443Z,3.30
2018-02-16T03:24:37.944Z,3.20
2018-02-16T03:27:05.446Z,3.30
2018-02-16T03:29:32.934Z,3.30
2018-02-16T03:32:00.435Z,3.40
2018-02-16T03:34:28.690Z,3.40
2018-02-16T03:36:56.195Z,3.40
2018-02-16T03:39:24.599Z,3.20
2018-02-16T03:41:52.111Z,3.20
2018-02-16T03:44:19.599Z,3.30
2018-02-16T03:46:47.109Z,3.30
2018-02-16T03:49:15.355Z,3.30
2018-02-16T03:51:42.864Z,3.30
2018-02-16T03:54:11.115Z,3.10
2018-02-16T03:56:38.623Z,3.10
2018-02-16T03:59:06.868Z,3.10
2018-02-16T04:01:34.375Z,3.10
2018-02-16T04:04:02.623Z,3.10
2018-02-16T04:06:30.131Z,3.00
2018-02-16T04:08:58.379Z,3.10
2018-02-16T04:11:25.882Z,3.00
2018-02-16T04:13:53.364Z,3.00
2018-02-16T04:16:21.652Z,3.00
2018-02-16T04:18:49.898Z,3.00
2018-02-16T04:21:17.386Z,3.00
2018-02-16T04:23:44.891Z,3.10
2018-02-16T04:26:13.144Z,3.10
2018-02-16T04:28:40.666Z,3.10
2018-02-16T04:31:08.147Z,3.00
2018-02-16T04:33:35.659Z,3.00
2018-02-16T04:36:03.147Z,3.00
2018-02-16T04:38:31.427Z,3.00
2018-02-16T04:40:58.910Z,3.00
2018-02-16T04:43:27.182Z,3.00
2018-02-16T04:45:55.447Z,3.00
2018-02-16T04:48:22.964Z,2.90
2018-02-16T04:50:50.452Z,2.90
2018-02-16T04:53:17.951Z,2.90
2018-02-16T04:55:45.435Z,2.80
2018-02-16T04:58:12.939Z,2.80
2018-02-16T05:00:41.187Z,2.70
2018-02-16T05:03:08.690Z,2.70
2018-02-16T05:05:36.943Z,2.70
2018-02-16T05:08:04.459Z,2.60
2018-02-16T05:10:31.956Z,2.70
2018-02-16T05:12:59.459Z,2.60
2018-02-16T05:15:26.951Z,2.60
2018-02-16T05:17:55.223Z,2.50
2018-02-16T05:20:22.712Z,2.50
2018-02-16T05:22:50.987Z,2.50
2018-02-16T05:25:18.479Z,2.50
2018-02-16T05:27:46.754Z,2.40
2018-02-16T05:30:14.243Z,2.40
2018-02-16T05:32:42.511Z,2.30
2018-02-16T05:35:09.994Z,2.30
2018-02-16T05:37:38.263Z,2.30
2018-02-16T05:40:05.760Z,2.30
2018-02-16T05:42:34.031Z,2.30
2018-02-16T05:45:01.523Z,2.30
2018-02-16T05:47:29.787Z,2.40
2018-02-16T05:49:57.279Z,2.40
2018-02-16T05:52:25.558Z,2.30
2018-02-16T05:54:53.806Z,2.40
2018-02-16T05:57:21.314Z,2.30
2018-02-16T05:59:48.822Z,2.40
2018-02-16T06:02:16.322Z,2.50
2018-02-16T06:04:43.807Z,2.50
2018-02-16T06:07:11.305Z,2.50
2018-02-16T06:09:39.558Z,2.60
2018-02-16T06:12:07.067Z,2.50
2018-02-16T06:14:34.554Z,2.60
2018-02-16T06:17:02.059Z,2.60
2018-02-16T06:19:29.538Z,2.60
2018-02-16T06:21:57.053Z,2.50
2018-02-16T06:24:24.544Z,2.50
2018-02-16T06:26:52.027Z,2.50
2018-02-16T06:29:19.530Z,2.50
2018-02-16T06:31:47.022Z,2.40
2018-02-16T06:34:15.290Z,2.30
2018-02-16T06:36:42.783Z,2.30
2018-02-16T06:39:10.290Z,2.40
2018-02-16T06:41:37.771Z,2.30
2018-02-16T06:44:05.271Z,2.30
2018-02-16T06:46:32.859Z,2.30
2018-02-16T06:49:01.174Z,2.30
2018-02-16T06:51:28.687Z,2.30
2018-02-16T06:53:56.263Z,2.40
2018-02-16T06:56:23.751Z,2.30
2018-02-16T06:58:51.279Z,2.30
2018-02-16T07:01:19.770Z,2.30
2018-02-16T07:03:47.319Z,2.30
2018-02-16T07:06:14.818Z,2.30
2018-02-16T07:08:42.331Z,2.30
2018-02-16T07:11:10.629Z,2.50
2018-02-16T07:13:38.163Z,2.40
2018-02-16T07:16:05.648Z,2.40
2018-02-16T07:18:33.169Z,2.40
2018-02-16T07:21:01.422Z,2.40
2018-02-16T07:23:29.700Z,2.40
2018-02-16T07:25:57.203Z,2.30
2018-02-16T07:28:24.732Z,2.40
2018-02-16T07:30:52.218Z,2.50
2018-02-16T07:33:20.486Z,2.60
2018-02-16T07:35:47.971Z,2.50
2018-02-16T07:38:15.484Z,2.70
2018-02-16T07:40:42.973Z,2.70
2018-02-16T07:43:10.513Z,2.70
2018-02-16T07:45:38.013Z,2.70
2018-02-16T07:48:05.510Z,2.70
2018-02-16T07:50:32.994Z,2.70
2018-02-16T07:53:00.491Z,2.80
2018-02-16T07:55:27.975Z,3.00
2018-02-16T07:57:55.491Z,3.10
2018-02-16T08:00:22.980Z,3.00
2018-02-16T08:02:51.276Z,3.00
2018-02-16T08:05:19.520Z,2.90
2018-02-16T08:07:47.019Z,2.90
2018-02-16T08:10:14.507Z,3.00
2018-02-16T08:12:42.777Z,2.90
2018-02-16T08:15:10.261Z,2.90
2018-02-16T08:17:38.531Z,2.70
2018-02-16T08:20:06.015Z,2.70
2018-02-16T08:22:34.288Z,2.70
2018-02-16T08:25:01.777Z,2.60
2018-02-16T08:27:29.278Z,2.60
2018-02-16T08:29:56.763Z,2.50
2018-02-16T08:32:24.251Z,2.60
2018-02-16T08:34:51.760Z,2.60
2018-02-16T08:37:20.008Z,2.60
2018-02-16T08:39:47.511Z,2.50
2018-02-16T08:42:15.762Z,2.60
2018-02-16T08:44:43.266Z,2.60
2018-02-16T08:47:11.519Z,2.70
2018-02-16T08:49:39.018Z,2.70
2018-02-16T08:52:06.499Z,2.90
2018-02-16T08:54:34.768Z,3.00
2018-02-16T08:57:02.252Z,2.90
2018-02-16T08:59:29.754Z,3.00
2018-02-16T09:01:57.251Z,3.00
2018-02-16T09:04:24.757Z,3.00
2018-02-16T09:06:52.244Z,3.00
2018-02-16T09:09:20.514Z,3.20
2018-02-16T09:11:47.999Z,3.10
2018-02-16T09:14:16.263Z,3.20
2018-02-16T09:16:43.775Z,3.10
2018-02-16T09:19:15.067Z,3.20
2018-02-16T09:21:42.554Z,3.30
2018-02-16T09:24:10.056Z,3.40
2018-02-16T09:26:38.301Z,3.40
2018-02-16T09:29:05.813Z,3.40
2018-02-16T09:31:34.063Z,3.50
2018-02-16T09:34:01.567Z,3.50
2018-02-16T09:36:29.048Z,3.50
2018-02-16T09:38:59.987Z,3.60
2018-02-16T09:41:28.242Z,3.70
2018-02-16T09:43:55.738Z,3.60
2018-02-16T09:46:23.219Z,3.80
2018-02-16T09:48:51.479Z,3.80
2018-02-16T09:51:18.979Z,3.70
2018-02-16T09:53:47.251Z,3.70
2018-02-16T09:56:14.727Z,3.70
2018-02-16T09:58:42.240Z,3.60
2018-02-16T10:01:09.726Z,3.70
2018-02-16T10:03:37.232Z,3.70
2018-02-16T10:06:04.710Z,3.70
2018-02-16T10:08:32.207Z,3.70
2018-02-16T10:10:59.691Z,3.70
2018-02-16T10:13:27.197Z,3.70
2018-02-16T10:15:54.688Z,3.70
2018-02-16T10:18:22.192Z,3.80
2018-02-16T10:20:49.664Z,3.80
2018-02-16T10:23:17.152Z,3.90
2018-02-16T10:25:44.652Z,4.20
2018-02-16T10:28:12.143Z,4.20
2018-02-16T10:30:39.638Z,4.00
2018-02-16T10:33:07.118Z,4.00
2018-02-16T10:35:34.619Z,4.00
2018-02-16T10:38:02.102Z,4.00
2018-02-16T10:40:30.588Z,4.00
2018-02-16T10:42:59.063Z,4.00
2018-02-16T10:45:26.578Z,4.00
2018-02-16T10:47:54.831Z,4.10
2018-02-16T10:50:22.335Z,4.10
2018-02-16T10:52:49.819Z,4.20
2018-02-16T10:55:18.086Z,4.30
2018-02-16T10:57:45.576Z,4.30
2018-02-16T11:00:13.891Z,4.50
2018-02-16T11:02:47.140Z,4.40
2018-02-16T11:05:14.648Z,4.50
2018-02-16T11:07:47.828Z,4.60
2018-02-16T11:10:15.331Z,4.60
2018-02-16T11:12:42.815Z,4.70
2018-02-16T11:15:10.314Z,4.70
2018-02-16T11:17:37.803Z,4.60
2018-02-16T11:20:05.312Z,4.60
2018-02-16T11:22:32.807Z,4.60
2018-02-16T11:25:01.094Z,4.60
2018-02-16T11:27:28.604Z,4.60
2018-02-16T11:29:56.119Z,4.70
2018-02-16T11:32:23.606Z,4.70
2018-02-16T11:34:51.123Z,4.80
2018-02-16T11:37:19.379Z,4.90
2018-02-16T11:39:46.885Z,4.80
2018-02-16T11:42:15.140Z,5.10
2018-02-16T11:44:42.647Z,5.10
2018-02-16T11:47:10.903Z,5.20
2018-02-16T11:49:38.406Z,5.20
2018-02-16T11:52:06.668Z,5.30
2018-02-16T11:54:34.187Z,5.30
2018-02-16T11:57:01.690Z,5.10
2018-02-16T11:59:29.188Z,5.10
2018-02-16T12:01:56.714Z,5.20
2018-02-16T12:04:24.197Z,5.30
2018-02-16T12:06:51.702Z,5.50
2018-02-16T12:09:19.488Z,5.60
2018-02-16T12:11:47.747Z,5.70
2018-02-16T12:14:15.259Z,5.70
2018-02-16T12:16:42.761Z,5.80
2018-02-16T12:19:10.286Z,6.00
2018-02-16T12:21:38.538Z,6.60
2018-02-16T12:24:06.185Z,6.50
2018-02-16T12:26:33.761Z,6.90
2018-02-16T12:29:01.420Z,7.10
2018-02-16T12:31:28.947Z,7.30
2018-02-16T12:33:56.441Z,7.40
2018-02-16T12:36:23.975Z,7.50
2018-02-16T12:38:51.471Z,7.50
2018-02-16T12:41:19.756Z,7.60
2018-02-16T12:43:48.024Z,7.80
2018-02-16T12:46:15.537Z,7.70
2018-02-16T12:48:43.791Z,7.90
2018-02-16T12:51:11.296Z,7.80
2018-02-16T12:54:01.209Z,7.90
2018-02-16T12:56:28.722Z,7.90
2018-02-16T12:58:56.223Z,8.00
2018-02-16T13:01:24.511Z,8.20
2018-02-16T13:03:52.775Z,8.30
2018-02-16T13:06:20.300Z,8.20
2018-02-16T13:08:47.803Z,8.40
2018-02-16T13:11:15.315Z,8.50
2018-02-16T13:13:43.567Z,8.60
2018-02-16T13:16:11.089Z,8.50
2018-02-16T13:18:38.592Z,8.60
2018-02-16T13:21:06.100Z,8.60
2018-02-16T13:23:33.600Z,8.80
2018-02-16T13:26:01.103Z,8.70
2018-02-16T13:28:28.651Z,8.60
2018-02-16T13:30:56.155Z,8.70
2018-02-16T13:33:23.675Z,8.80
2018-02-16T13:35:51.936Z,8.70
2018-02-16T13:38:19.479Z,8.70
2018-02-16T13:40:47.004Z,8.70
2018-02-16T13:43:14.527Z,8.80
2018-02-16T13:45:42.018Z,8.80
2018-02-16T13:48:09.535Z,8.80
2018-02-16T13:50:37.027Z,8.80
2018-02-16T13:53:04.555Z,8.80
2018-02-16T13:55:32.072Z,8.90
2018-02-16T13:57:59.620Z,8.90
2018-02-16T14:00:27.094Z,9.00
2018-02-16T14:02:54.627Z,9.00
2018-02-16T14:05:22.882Z,8.90
2018-02-16T14:07:50.379Z,8.90
2018-02-16T14:10:18.667Z,8.90
2018-02-16T14:12:46.156Z,8.90
2018-02-16T14:15:14.420Z,9.00
2018-02-16T14:17:41.904Z,8.90
2018-02-16T14:20:10.179Z,9.00
2018-02-16T14:22:37.666Z,8.90
2018-02-16T14:25:05.951Z,8.90
2018-02-16T14:27:34.207Z,8.70
2018-02-16T14:30:01.715Z,8.60
2018-02-16T14:32:29.984Z,8.60
2018-02-16T14:34:57.505Z,8.60
2018-02-16T14:37:24.993Z,8.60
2018-02-16T14:39:52.495Z,8.60
2018-02-16T14:42:19.971Z,8.60
2018-02-16T14:44:47.478Z,8.60
2018-02-16T14:47:14.974Z,8.60
2018-02-16T14:49:42.481Z,8.50
2018-02-16T14:52:09.967Z,8.50
2018-02-16T14:54:38.234Z,8.50
2018-02-16T14:57:05.736Z,8.50
2018-02-16T14:59:33.259Z,8.60
2018-02-16T15:02:00.771Z,8.60
2018-02-16T15:04:28.266Z,8.50
2018-02-16T15:06:55.782Z,8.50
2018-02-16T15:09:23.279Z,8.50
2018-02-16T15:11:50.798Z,8.50
2018-02-16T15:14:18.290Z,8.40
2018-02-16T15:16:45.798Z,8.30
2018-02-16T15:19:13.295Z,8.20
2018-02-16T15:21:41.646Z,8.20
2018-02-16T15:24:09.899Z,8.20
2018-02-16T15:26:37.415Z,8.10
2018-02-16T15:29:04.899Z,8.20
2018-02-16T15:31:32.422Z,8.20
2018-02-16T15:33:59.918Z,8.20
2018-02-16T15:36:28.211Z,8.20
2018-02-16T15:38:55.709Z,8.20
2018-02-16T15:41:23.219Z,8.20
2018-02-16T15:43:50.713Z,8.20
2018-02-16T15:46:18.988Z,8.10
2018-02-16T15:48:46.475Z,8.00
2018-02-16T15:51:14.756Z,8.00
2018-02-16T15:53:43.009Z,8.00
2018-02-16T15:56:10.541Z,8.00
2018-02-16T15:58:38.048Z,8.00
2018-02-16T16:01:05.524Z,8.00
2018-02-16T16:03:33.827Z,7.90
2018-02-16T16:06:01.316Z,7.90
2018-02-16T16:08:29.596Z,7.90
2018-02-16T16:10:57.091Z,7.80
2018-02-16T16:13:24.631Z,7.80
2018-02-16T16:15:52.167Z,7.70
2018-02-16T16:18:19.682Z,7.70
2018-02-16T16:20:47.932Z,7.60
2018-02-16T16:23:15.448Z,7.60
2018-02-16T16:25:43.695Z,7.60
2018-02-16T16:28:11.199Z,7.50
2018-02-16T16:30:38.683Z,7.50
2018-02-16T16:33:06.951Z,7.50
2018-02-16T16:35:34.452Z,7.40
2018-02-16T16:38:01.972Z,7.40
2018-02-16T16:40:29.457Z,7.40
2018-02-16T16:42:56.979Z,7.40
2018-02-16T16:45:24.463Z,7.30
2018-02-16T16:47:51.952Z,7.30
2018-02-16T16:50:20.251Z,7.30
2018-02-16T16:52:47.748Z,7.20
2018-02-16T16:55:16.015Z,7.10
2018-02-16T16:57:43.506Z,7.10
2018-02-16T17:00:11.032Z,7.10
2018-02-16T17:02:38.515Z,7.00
2018-02-16T17:05:06.018Z,6.90
2018-02-16T17:07:34.276Z,6.70
2018-02-16T17:10:01.791Z,6.70
2018-02-16T17:12:29.284Z,6.60
2018-02-16T17:14:56.798Z,6.60
2018-02-16T17:17:24.288Z,6.60
2018-02-16T17:19:52.564Z,6.50
2018-02-16T17:22:20.822Z,6.50
2018-02-16T17:24:48.329Z,6.50
2018-02-16T17:27:16.579Z,6.50
2018-02-16T17:29:44.091Z,6.50
2018-02-16T17:32:12.344Z,6.50
2018-02-16T17:34:39.873Z,6.40
2018-02-16T17:37:07.365Z,6.40
2018-02-16T17:39:34.851Z,6.40
2018-02-16T17:42:02.350Z,6.40
2018-02-16T17:44:30.598Z,6.20
2018-02-16T17:46:58.105Z,6.20
2018-02-16T17:49:26.358Z,5.90
2018-02-16T17:51:53.859Z,5.90
2018-02-16T17:54:21.344Z,5.80
2018-02-16T17:56:48.851Z,5.80
2018-02-16T17:59:16.336Z,5.80
2018-02-16T18:01:43.854Z,5.80
2018-02-16T18:04:12.109Z,5.80
2018-02-16T18:06:39.614Z,5.70
2018-02-16T18:09:07.867Z,5.80
2018-02-16T18:11:35.724Z,5.70
2018-02-16T18:14:03.212Z,5.80
2018-02-16T18:16:30.714Z,5.80
2018-02-16T18:18:58.962Z,5.80
2018-02-16T18:21:26.478Z,5.70
2018-02-16T18:23:54.746Z,5.70
2018-02-16T18:26:22.264Z,5.60
2018-02-16T18:28:49.750Z,5.70
2018-02-16T18:31:17.255Z,5.70
2018-02-16T18:33:44.743Z,5.70
2018-02-16T18:36:13.015Z,5.80
2018-02-16T18:38:40.501Z,5.70
2018-02-16T18:41:08.776Z,5.70
2018-02-16T18:43:37.027Z,5.80
2018-02-16T18:46:04.535Z,5.70
2018-02-16T18:48:32.795Z,5.70
2018-02-16T18:51:00.307Z,5.60
2018-02-16T18:53:28.551Z,5.70
2018-02-16T18:55:56.069Z,5.70
2018-02-16T18:58:23.575Z,5.70
2018-02-16T19:00:51.084Z,5.40
2018-02-16T19:03:18.567Z,5.30
2018-02-16T19:05:46.846Z,5.30
2018-02-16T19:08:14.337Z,5.30
2018-02-16T19:10:42.656Z,5.30
2018-02-16T19:13:10.123Z,5.20
2018-02-16T19:15:37.643Z,5.30
2018-02-16T19:18:05.126Z,5.30
2018-02-16T19:20:33.383Z,5.30
2018-02-16T19:23:00.903Z,5.30
2018-02-16T19:25:28.454Z,5.30
2018-02-16T19:27:56.739Z,5.20
2018-02-16T19:30:24.997Z,5.20
2018-02-16T19:32:52.511Z,5.10
2018-02-16T19:35:20.936Z,5.20
2018-02-16T19:37:48.464Z,5.10
2018-02-16T19:40:16.724Z,5.20
2018-02-16T19:42:44.234Z,5.20
2018-02-16T19:45:12.494Z,5.20
2018-02-16T19:47:40.416Z,5.20
2018-02-16T19:50:08.939Z,5.20
2018-02-16T19:52:36.501Z,5.10
2018-02-16T19:55:04.504Z,5.10
2018-02-16T19:57:32.408Z,5.00
2018-02-16T19:59:59.951Z,5.00
2018-02-16T20:02:28.092Z,5.10
2018-02-16T20:04:55.697Z,5.10
2018-02-16T20:07:23.204Z,5.10
2018-02-16T20:09:50.695Z,5.10
2018-02-16T20:12:18.221Z,5.10
2018-02-16T20:14:45.707Z,5.10
2018-02-16T20:17:13.382Z,5.10
2018-02-16T20:19:41.667Z,5.10
2018-02-16T20:22:09.175Z,5.10
2018-02-16T20:24:36.667Z,5.10
2018-02-16T20:27:04.186Z,5.10
2018-02-16T20:29:31.683Z,5.00
2018-02-16T20:31:59.205Z,5.00
2018-02-16T20:34:26.695Z,4.90
2018-02-16T20:36:54.208Z,5.00
2018-02-16T20:39:21.708Z,5.00
2018-02-16T20:41:49.222Z,4.90
2018-02-16T20:44:16.707Z,4.90
2018-02-16T20:46:44.983Z,4.70
2018-02-16T20:49:13.238Z,4.70
2018-02-16T20:51:40.754Z,4.60
2018-02-16T20:54:09.008Z,4.70
2018-02-16T20:56:36.544Z,4.60
2018-02-16T20:59:04.031Z,4.70
2018-02-16T21:01:31.548Z,4.60
2018-02-16T21:03:59.799Z,4.70
2018-02-16T21:06:27.306Z,4.70
2018-02-16T21:08:55.568Z,4.80
2018-02-16T21:11:23.075Z,4.80
2018-02-16T21:13:50.564Z,4.90
2018-02-16T21:16:18.079Z,4.80
2018-02-16T21:18:45.567Z,4.80
2018-02-16T21:21:13.836Z,4.80
2018-02-16T21:23:41.318Z,4.70
2018-02-16T21:26:08.827Z,4.80
2018-02-16T21:28:36.323Z,4.60
2018-02-16T21:31:03.815Z,4.50
2018-02-16T21:33:31.339Z,4.50
2018-02-16T21:35:58.824Z,4.50
2018-02-16T21:38:26.323Z,4.50
2018-02-16T21:40:53.815Z,4.40
2018-02-16T21:43:21.314Z,4.40
2018-02-16T21:45:48.807Z,4.40
2018-02-16T21:48:16.312Z,4.40
2018-02-16T21:50:43.812Z,4.40
2018-02-16T21:53:12.088Z,4.40
2018-02-16T21:55:39.589Z,4.40
2018-02-16T21:58:07.087Z,4.30
2018-02-16T22:00:34.571Z,4.40
2018-02-16T22:03:02.071Z,4.40
2018-02-16T22:05:30.364Z,4.20
2018-02-16T22:07:57.836Z,4.20
2018-02-16T22:10:26.083Z,4.20
2018-02-16T22:12:53.579Z,4.20
2018-02-16T22:15:21.068Z,4.30
2018-02-16T22:17:49.335Z,4.30
2018-02-16T22:20:16.819Z,4.30
2018-02-16T22:22:45.083Z,4.40
2018-02-16T22:25:12.572Z,4.40
2018-02-16T22:27:40.851Z,4.40
2018-02-16T22:30:08.332Z,4.30
2018-02-16T22:32:36.599Z,4.20
2018-02-16T22:35:04.082Z,4.20
2018-02-16T22:37:31.584Z,4.20
2018-02-16T22:39:59.063Z,4.30
2018-02-16T22:42:26.569Z,4.30
2018-02-16T22:44:54.051Z,4.40
2018-02-16T22:47:21.548Z,4.40
2018-02-16T22:49:49.788Z,4.20
2018-02-16T22:52:17.286Z,4.20
2018-02-16T22:54:44.762Z,4.30
2018-02-16T22:57:12.258Z,4.20
2018-02-16T22:59:39.747Z,4.10
2018-02-16T23:02:07.261Z,4.10
2018-02-16T23:04:34.739Z,4.00
2018-02-16T23:07:02.244Z,4.00
2018-02-16T23:09:29.731Z,3.90
2018-02-16T23:11:57.236Z,3.90
2018-02-16T23:14:24.724Z,3.90
2018-02-16T23:16:52.986Z,3.80
2018-02-16T23:19:20.479Z,3.80
2018-02-16T23:21:47.980Z,3.90
2018-02-16T23:24:15.455Z,3.80
2018-02-16T23:26:42.966Z,3.90
2018-02-16T23:29:10.461Z,3.90
2018-02-16T23:31:37.950Z,3.90
2018-02-16T23:34:05.464Z,3.70
2018-02-16T23:36:32.946Z,3.70
2018-02-16T23:39:00.447Z,3.70
2018-02-16T23:41:28.698Z,3.70
2018-02-16T23:43:56.155Z,3.70
2018-02-16T23:46:23.646Z,3.80
2018-02-16T23:48:51.172Z,3.80
2018-02-16T23:51:18.660Z,3.80
2018-02-16T23:53:46.948Z,3.80
2018-02-16T23:56:15.204Z,3.80
2018-02-16T23:58:42.712Z,3.70
